Time;durP1;ratioP1;P1;durP2;ratioP2;P2;SDS_P1;SDS_P2;PMS_P1;PMS_P2;Temp;Humidity;BMP_temperature;BMP_pressure;BME280_temperature;BME280_humidity;BME280_pressure;Samples;Min_cycle;Max_cycle;Signal;HPM_P1;HPM_P2
2023/06/27 05:27:48;;;;;;;3.47;1.00;;;15.80;53.90;;;;;;6275646;22;20024;-68
2023/06/27 05:30:15;;;;;;;3.78;0.82;;;15.70;54.00;;;;;;6293343;22;20011;-69
2023/06/27 05:32:42;;;;;;;7.18;1.45;;;15.70;54.10;;;;;;6307617;22;20023;-68
2023/06/27 05:35:09;;;;;;;5.15;1.50;;;15.80;54.20;;;;;;6307023;22;20338;-68
2023/06/27 05:37:37;;;;;;;4.40;1.20;;;15.80;54.10;;;;;;6307287;22;20007;-68
2023/06/27 05:40:04;;;;;;;6.57;1.50;;;15.80;54.30;;;;;;6302943;22;20433;-70
2023/06/27 05:42:32;;;;;;;5.00;1.40;;;15.80;54.60;;;;;;6303957;22;20010;-68
2023/06/27 05:44:59;;;;;;;6.47;1.65;;;15.70;54.40;;;;;;6304771;22;20609;-68
2023/06/27 05:47:26;;;;;;;5.47;1.20;;;15.70;54.50;;;;;;6304248;22;20074;-68
2023/06/27 05:49:53;;;;;;;4.10;1.33;;;15.70;54.00;;;;;;6303164;22;20011;-68
2023/06/27 05:52:21;;;;;;;5.32;1.10;;;15.70;53.80;;;;;;6304319;22;19999;-68
2023/06/27 05:54:48;;;;;;;4.22;1.08;;;15.70;53.80;;;;;;6303887;22;20029;-68
2023/06/27 05:57:15;;;;;;;4.22;1.35;;;15.70;53.60;;;;;;6301247;22;20013;-68
2023/06/27 05:59:42;;;;;;;5.82;1.15;;;15.60;53.60;;;;;;6303470;22;20011;-68
2023/06/27 06:02:10;;;;;;;7.00;1.65;;;15.60;53.60;;;;;;6276715;22;20434;-68
2023/06/27 06:04:37;;;;;;;4.28;1.20;;;15.60;53.50;;;;;;6304157;22;20007;-68
2023/06/27 06:07:04;;;;;;;3.35;1.27;;;15.50;53.50;;;;;;6304442;22;20003;-68
2023/06/27 06:09:32;;;;;;;3.55;1.15;;;15.60;53.20;;;;;;6303746;22;20090;-68
2023/06/27 06:11:59;;;;;;;3.65;1.15;;;15.50;53.30;;;;;;6303717;22;20034;-68
2023/06/27 06:14:26;;;;;;;4.45;1.92;;;15.50;53.30;;;;;;6304081;22;20010;-68
2023/06/27 06:16:54;;;;;;;3.33;1.30;;;15.50;53.50;;;;;;6304011;22;19999;-67
2023/06/27 06:19:22;;;;;;;6.18;1.55;;;15.50;53.80;;;;;;6303189;22;20511;-68
2023/06/27 06:21:49;;;;;;;4.32;1.35;;;15.40;54.40;;;;;;6304691;22;20007;-67
2023/06/27 06:24:16;;;;;;;5.25;1.52;;;15.40;54.20;;;;;;6303794;22;20007;-67
2023/06/27 06:26:43;;;;;;;4.32;1.33;;;15.40;54.20;;;;;;6303625;22;20068;-67
2023/06/27 06:29:13;;;;;;;4.38;1.60;;;15.40;54.10;;;;;;6303368;22;20066;-68
2023/06/27 06:31:44;;;;;;;4.22;1.05;;;15.40;54.10;;;;;;6303699;22;20346;-68
2023/06/27 06:34:11;;;;;;;8.20;1.33;;;15.30;54.00;;;;;;6276401;22;20019;-68
2023/06/27 06:36:39;;;;;;;9.13;1.42;;;15.30;53.90;;;;;;6303677;22;20393;-67
2023/06/27 06:39:06;;;;;;;5.20;1.40;;;15.30;53.80;;;;;;6303110;22;20019;-70
2023/06/27 06:41:33;;;;;;;4.78;1.40;;;15.30;53.80;;;;;;6303586;22;20007;-70
2023/06/27 06:44:00;;;;;;;5.47;1.42;;;15.30;53.60;;;;;;6303522;22;20315;-72
2023/06/27 06:46:28;;;;;;;6.32;1.67;;;15.20;53.60;;;;;;6303743;22;20007;-69
2023/06/27 06:48:55;;;;;;;6.32;1.38;;;15.20;53.70;;;;;;6303294;22;20012;-69
2023/06/27 06:51:23;;;;;;;4.22;1.52;;;15.30;53.80;;;;;;6303182;22;20007;-69
2023/06/27 06:53:50;;;;;;;5.53;1.67;;;15.20;53.90;;;;;;6303581;22;20011;-69
2023/06/27 06:56:17;;;;;;;4.00;1.40;;;15.20;54.00;;;;;;6302112;22;20027;-69
2023/06/27 06:58:44;;;;;;;5.65;1.70;;;15.20;54.10;;;;;;6302730;22;20015;-70
2023/06/27 07:01:11;;;;;;;5.70;2.08;;;15.20;54.20;;;;;;6303691;22;20377;-68
2023/06/27 07:03:39;;;;;;;6.43;1.55;;;15.20;54.40;;;;;;6303659;22;20003;-70
2023/06/27 07:06:06;;;;;;;5.07;1.48;;;15.20;54.60;;;;;;6303370;22;20003;-71
2023/06/27 07:08:34;;;;;;;3.58;1.30;;;15.20;54.70;;;;;;6303285;22;20463;-69
2023/06/27 07:11:02;;;;;;;3.35;1.20;;;15.10;54.80;;;;;;6303267;22;20299;-68
2023/06/27 07:13:30;;;;;;;3.60;1.38;;;15.10;55.00;;;;;;6303259;22;20010;-68
2023/06/27 07:15:57;;;;;;;4.05;1.30;;;15.10;55.10;;;;;;6301643;22;20007;-68
2023/06/27 07:18:24;;;;;;;4.22;1.50;;;15.00;55.20;;;;;;6302038;22;20501;-69
2023/06/27 07:20:52;;;;;;;5.50;1.48;;;15.00;55.30;;;;;;6303611;22;20037;-70
2023/06/27 07:23:19;;;;;;;5.15;2.00;;;15.00;55.50;;;;;;6303407;22;20469;-68
2023/06/27 07:25:46;;;;;;;4.22;1.40;;;15.00;55.60;;;;;;6302763;22;20037;-70
2023/06/27 07:28:13;;;;;;;4.57;1.50;;;15.00;55.80;;;;;;6299671;22;20351;-70
2023/06/27 07:30:45;;;;;;;4.85;1.50;;;15.00;55.90;;;;;;6301893;22;20007;-70
2023/06/27 07:33:13;;;;;;;3.65;1.55;;;15.00;56.00;;;;;;6302405;22;20003;-70
2023/06/27 07:35:40;;;;;;;6.57;1.60;;;14.90;56.10;;;;;;6301742;22;20338;-70
2023/06/27 07:38:07;;;;;;;3.80;1.20;;;15.00;56.10;;;;;;6302810;22;20063;-71
2023/06/27 07:40:35;;;;;;;4.00;1.70;;;15.00;56.20;;;;;;6302859;22;20483;-71
2023/06/27 07:43:02;;;;;;;3.55;1.60;;;14.90;56.20;;;;;;6302699;22;20006;-71
2023/06/27 07:45:29;;;;;;;3.22;1.35;;;14.90;56.30;;;;;;6302796;22;20007;-71
2023/06/27 07:47:56;;;;;;;5.05;1.50;;;15.00;56.30;;;;;;6303095;22;20497;-71
2023/06/27 07:50:24;;;;;;;6.55;1.83;;;14.90;56.40;;;;;;6301956;22;20030;-71
2023/06/27 09:03:44;;;;;;;16.02;5.15;;;14.50;61.30;;;;;;6299885;22;20053;-65
2023/06/27 09:06:12;;;;;;;16.33;5.85;;;14.40;61.80;;;;;;6302600;22;20171;-66
2023/06/27 09:08:40;;;;;;;17.98;5.90;;;14.40;62.10;;;;;;6302510;22;20354;-67
2023/06/27 09:11:09;;;;;;;12.82;4.25;;;14.40;62.50;;;;;;6276877;22;20424;-67
2023/06/27 09:13:37;;;;;;;12.88;4.47;;;14.30;62.50;;;;;;6304122;22;20062;-70
2023/06/27 09:16:06;;;;;;;14.25;5.20;;;14.30;62.70;;;;;;6301735;22;19999;-68
2023/06/27 09:18:35;;;;;;;11.13;4.53;;;14.30;62.90;;;;;;6275316;22;20101;-70
2023/06/27 09:21:03;;;;;;;22.98;7.65;;;14.30;63.40;;;;;;6304185;22;20330;-70
2023/06/27 09:23:33;;;;;;;17.60;6.15;;;14.30;63.60;;;;;;6304668;22;20027;-68
2023/06/27 09:26:09;;;;;;;;;;;14.30;63.60;;;;;;6304904;22;20011;-69
2023/06/27 09:28:46;;;;;;;14.77;5.50;;;14.20;63.70;;;;;;6302771;22;20112;-69
2023/06/27 09:31:14;;;;;;;8.85;4.45;;;14.20;63.50;;;;;;6303574;22;20023;-70
2023/06/27 09:33:44;;;;;;;13.95;4.15;;;14.20;63.20;;;;;;6301953;22;20069;-68
2023/06/27 09:36:12;;;;;;;12.95;4.03;;;14.20;63.90;;;;;;6300722;22;20082;-68
2023/06/27 09:38:39;;;;;;;10.90;4.05;;;14.20;64.20;;;;;;6302394;22;20007;-67
2023/06/27 09:41:08;;;;;;;8.40;4.10;;;14.20;64.40;;;;;;6302324;22;20019;-67
2023/06/27 09:43:36;;;;;;;8.05;3.80;;;14.30;64.40;;;;;;6275907;22;20073;-67
2023/06/27 09:46:06;;;;;;;8.90;3.80;;;14.20;64.40;;;;;;6304002;22;20003;-67
2023/06/27 09:48:33;;;;;;;;;;;14.20;64.20;;;;;;6277536;22;20042;-67
2023/06/27 09:51:08;;;;;;;11.50;4.05;;;14.20;64.20;;;;;;6275162;22;19899;-67
2023/06/27 09:53:35;;;;;;;10.00;4.05;;;14.20;64.20;;;;;;6303206;22;20015;-67
2023/06/27 09:56:03;;;;;;;10.90;4.50;;;14.20;64.30;;;;;;6303615;22;20431;-68
2023/06/27 09:58:31;;;;;;;11.95;4.20;;;14.20;64.60;;;;;;6300469;22;20011;-68
2023/06/27 10:01:05;;;;;;;12.18;3.90;;;14.20;64.60;;;;;;6303114;22;20011;-68
2023/06/27 10:03:36;;;;;;;10.10;3.97;;;14.10;64.90;;;;;;6302198;22;20354;-67
2023/06/27 10:06:03;;;;;;;11.60;4.00;;;14.10;64.80;;;;;;6302424;22;20027;-67
2023/06/27 10:08:31;;;;;;;13.02;4.30;;;14.10;64.80;;;;;;6276533;22;20003;-67
2023/06/27 10:10:58;;;;;;;15.15;4.57;;;14.10;65.50;;;;;;6302427;22;20010;-70
2023/06/27 10:13:25;;;;;;;11.27;4.53;;;14.10;66.10;;;;;;6275411;22;20086;-69
2023/06/27 10:15:52;;;;;;;12.05;4.63;;;14.10;66.20;;;;;;6275761;22;20010;-70
2023/06/27 10:18:20;;;;;;;10.07;4.20;;;14.10;66.30;;;;;;6303904;22;20007;-71
2023/06/27 10:20:47;;;;;;;12.43;4.57;;;14.10;66.10;;;;;;6275226;22;20043;-69
2023/06/27 10:23:15;;;;;;;13.20;4.10;;;14.10;66.00;;;;;;6275228;22;20867;-69
2023/06/27 10:25:42;;;;;;;9.60;4.40;;;14.10;66.10;;;;;;6250350;22;20086;-71
2023/06/27 10:28:09;;;;;;;12.15;4.40;;;14.20;66.20;;;;;;6275858;22;20098;-70
2023/06/27 10:30:44;;;;;;;11.27;4.25;;;14.10;66.30;;;;;;6303556;22;20014;-73
2023/06/27 10:33:35;;;;;;;13.35;4.88;;;14.10;66.50;;;;;;6302333;22;20011;-68
2023/06/27 10:36:06;;;;;;;16.38;5.90;;;14.20;66.20;;;;;;6300631;22;20013;-67
2023/06/27 10:38:38;;;;;;;13.05;5.43;;;14.20;65.80;;;;;;6300939;22;20337;-68
2023/06/27 10:41:06;;;;;;;11.55;5.00;;;14.20;65.50;;;;;;6302950;22;20346;-69
2023/06/27 10:43:49;;;;;;;8.90;4.30;;;14.20;65.10;;;;;;6303431;22;20003;-69
2023/06/27 10:46:20;;;;;;;8.15;3.45;;;14.20;64.70;;;;;;6302881;22;20016;-70
2023/06/27 10:48:54;;;;;;;10.70;4.45;;;14.20;64.20;;;;;;6301734;22;20054;-73
2023/06/27 10:51:23;;;;;;;12.70;4.50;;;14.20;64.20;;;;;;6276071;22;20007;-72
2023/06/27 10:54:08;;;;;;;9.02;3.80;;;14.20;64.40;;;;;;6302992;22;19999;-69
2023/06/27 10:56:40;;;;;;;10.38;4.10;;;14.10;64.70;;;;;;6300403;22;20003;-71
2023/06/27 10:59:26;;;;;;;9.07;4.07;;;14.00;65.00;;;;;;6276905;22;20023;-70
2023/06/27 11:02:06;;;;;;;10.32;4.30;;;14.10;65.20;;;;;;6302328;22;20058;-71
2023/06/27 11:04:44;;;;;;;13.63;4.45;;;14.00;65.10;;;;;;6276505;22;20070;-70
2023/06/27 11:07:19;;;;;;;9.35;4.22;;;14.00;65.30;;;;;;6302419;22;20017;-70
2023/06/27 11:09:55;;;;;;;10.60;4.47;;;14.10;65.60;;;;;;6302495;22;20384;-71
2023/06/27 11:12:22;;;;;;;11.00;4.43;;;14.00;65.80;;;;;;6275977;22;20334;-70
2023/06/27 11:14:53;;;;;;;8.38;3.78;;;14.00;65.60;;;;;;6300853;22;20011;-71
2023/06/27 11:17:21;;;;;;;9.02;4.25;;;14.00;65.90;;;;;;6300424;22;20045;-71
2023/06/27 11:19:49;;;;;;;11.02;4.72;;;14.00;66.10;;;;;;6273244;22;20148;-71
2023/06/27 11:22:17;;;;;;;12.18;4.05;;;14.00;66.00;;;;;;6302427;22;20035;-67
2023/06/27 11:24:44;;;;;;;8.27;3.95;;;14.00;65.90;;;;;;6274747;22;20018;-69
2023/06/27 11:27:11;;;;;;;13.23;4.40;;;14.00;65.90;;;;;;6275130;22;20349;-69
2023/06/27 11:29:39;;;;;;;12.50;3.95;;;14.00;65.90;;;;;;6274518;22;20018;-69
2023/06/27 11:32:06;;;;;;;9.00;4.53;;;14.00;66.00;;;;;;6275531;22;20031;-69
2023/06/27 11:34:33;;;;;;;12.13;5.05;;;14.00;65.70;;;;;;6301732;22;20007;-67
2023/06/27 11:37:01;;;;;;;11.35;4.35;;;14.00;65.60;;;;;;6275348;22;20003;-68
2023/06/27 11:39:28;;;;;;;9.65;3.88;;;13.90;65.10;;;;;;6274241;22;20056;-67
2023/06/27 11:41:55;;;;;;;10.52;3.85;;;13.90;64.80;;;;;;6303406;22;20031;-67
2023/06/27 11:44:29;;;;;;;9.52;4.57;;;13.90;64.80;;;;;;6301938;22;20010;-67
2023/06/27 11:46:57;;;;;;;11.88;3.80;;;13.90;64.80;;;;;;6276387;22;20430;-69
2023/06/27 11:49:25;;;;;;;10.73;4.00;;;13.90;64.70;;;;;;6302023;22;20007;-68
2023/06/27 11:51:56;;;;;;;12.50;3.63;;;13.90;65.00;;;;;;6302341;22;20003;-69
2023/06/27 11:54:23;;;;;;;10.93;4.00;;;13.90;65.20;;;;;;6302550;22;20015;-70
2023/06/27 11:56:51;;;;;;;9.00;4.18;;;13.90;65.10;;;;;;6300348;22;20421;-69
2023/06/27 12:09:08;;;;;;;8.35;4.28;;;13.80;66.00;;;;;;6271889;22;20813;-70
2023/06/27 12:11:36;;;;;;;8.43;4.10;;;13.80;66.40;;;;;;6271551;22;20027;-68
2023/06/27 12:14:04;;;;;;;10.88;4.70;;;13.80;66.20;;;;;;6270889;22;20000;-69
2023/06/27 12:16:35;;;;;;;8.98;4.32;;;13.80;66.00;;;;;;6273718;22;20008;-69
2023/06/27 12:19:08;;;;;;;10.88;3.60;;;13.80;65.20;;;;;;6245182;22;20027;-68
2023/06/27 12:21:36;;;;;;;7.93;4.10;;;13.80;65.20;;;;;;6273294;22;20069;-68
2023/06/27 12:24:04;;;;;;;12.45;4.35;;;13.80;64.90;;;;;;6273534;22;20006;-68
2023/06/27 12:26:31;;;;;;;6.90;3.88;;;13.80;64.70;;;;;;6274674;22;20030;-68
2023/06/27 12:28:59;;;;;;;13.00;4.30;;;13.90;64.50;;;;;;6276704;22;20071;-68
2023/06/27 12:31:26;;;;;;;13.20;4.22;;;13.90;64.30;;;;;;6278273;22;19992;-68
2023/06/27 12:33:54;;;;;;;9.57;3.80;;;13.90;64.10;;;;;;6277867;22;20031;-68
2023/06/27 12:36:22;;;;;;;8.95;3.53;;;13.90;64.00;;;;;;6277934;22;20004;-67
2023/06/27 12:38:50;;;;;;;8.65;3.35;;;14.00;63.80;;;;;;6278094;22;20012;-68
2023/06/27 12:41:21;;;;;;;9.63;2.75;;;13.90;63.70;;;;;;6276904;22;20035;-68
2023/06/27 12:43:48;;;;;;;5.35;2.20;;;13.90;63.50;;;;;;6278544;22;20018;-68
2023/06/27 12:46:16;;;;;;;4.72;2.10;;;14.00;62.60;;;;;;6278513;22;20084;-68
2023/06/27 12:48:44;;;;;;;5.10;1.45;;;14.00;61.90;;;;;;6277819;22;20011;-68
2023/06/27 12:51:11;;;;;;;7.25;2.20;;;14.00;61.20;;;;;;6276944;22;20007;-68
2023/06/27 12:53:39;;;;;;;5.18;2.05;;;14.00;60.80;;;;;;6277404;22;20063;-67
2023/06/27 12:56:06;;;;;;;6.13;1.77;;;14.10;60.40;;;;;;6277921;22;20083;-68
2023/06/27 12:58:35;;;;;;;6.75;1.92;;;14.10;60.20;;;;;;6277747;22;20331;-68
2023/06/27 13:01:02;;;;;;;6.70;2.10;;;14.10;60.20;;;;;;6251353;22;20008;-68
2023/06/27 13:03:30;;;;;;;8.00;2.60;;;14.10;60.30;;;;;;6278350;22;20510;-68
2023/06/27 13:05:57;;;;;;;7.00;2.63;;;14.00;60.30;;;;;;6277873;22;20003;-68
2023/06/27 13:08:27;;;;;;;7.88;2.42;;;14.00;60.40;;;;;;6304745;22;20038;-68
2023/06/27 13:10:55;;;;;;;6.75;2.45;;;14.10;60.50;;;;;;6308764;22;20360;-68
2023/06/27 13:13:22;;;;;;;6.03;2.45;;;14.00;60.50;;;;;;6309242;22;20088;-68
2023/06/27 13:15:49;;;;;;;11.65;2.60;;;14.00;60.90;;;;;;6309047;22;20006;-68
2023/06/27 13:18:16;;;;;;;7.13;2.60;;;14.00;61.20;;;;;;6309055;22;20024;-68
2023/06/27 13:20:45;;;;;;;9.93;2.72;;;14.00;61.50;;;;;;6309084;22;20015;-68
2023/06/27 13:23:13;;;;;;;7.57;2.67;;;14.00;61.60;;;;;;6308821;22;20376;-68
2023/06/27 13:25:44;;;;;;;11.57;2.95;;;14.00;61.90;;;;;;6308764;22;20053;-68
2023/06/27 13:28:11;;;;;;;9.25;3.03;;;14.00;62.20;;;;;;6308787;22;20007;-68
2023/06/27 13:30:38;;;;;;;10.50;2.40;;;14.00;62.30;;;;;;6309084;22;20030;-68
2023/06/27 13:33:06;;;;;;;7.57;2.45;;;13.90;62.30;;;;;;6309439;22;20325;-68
2023/06/27 13:35:34;;;;;;;8.40;2.00;;;14.00;62.30;;;;;;6281299;22;20074;-68
2023/06/27 13:38:02;;;;;;;9.63;2.78;;;14.00;62.30;;;;;;6308742;22;20003;-68
2023/06/27 13:40:29;;;;;;;6.78;2.28;;;13.90;62.30;;;;;;6306483;22;20061;-68
2023/06/27 13:42:57;;;;;;;5.13;2.30;;;13.90;62.50;;;;;;6306075;22;20000;-68
2023/06/27 13:45:24;;;;;;;6.45;2.60;;;13.90;62.90;;;;;;6306005;22;20158;-68
2023/06/27 14:25:32;;;;;;;5.68;1.90;;;13.70;61.50;;;;;;6305839;22;20025;-68
2023/06/27 14:28:00;;;;;;;7.07;2.30;;;13.70;61.40;;;;;;6306951;22;20023;-68
2023/06/27 14:30:28;;;;;;;7.15;2.05;;;13.70;61.30;;;;;;6306375;22;20002;-68
2023/06/27 14:32:58;;;;;;;5.78;2.22;;;13.70;61.40;;;;;;6280345;22;20003;-68
2023/06/27 14:35:26;;;;;;;6.88;2.13;;;13.70;61.50;;;;;;6306874;22;20303;-68
2023/06/27 14:37:54;;;;;;;6.45;2.28;;;13.70;61.70;;;;;;6306767;22;20009;-68
2023/06/27 14:40:21;;;;;;;4.10;2.13;;;13.70;61.80;;;;;;6306715;22;20018;-68
2023/06/27 14:42:48;;;;;;;8.20;2.35;;;13.70;61.90;;;;;;6279875;22;19999;-68
2023/06/27 14:45:15;;;;;;;10.32;2.13;;;13.70;61.90;;;;;;6307137;22;20003;-67
2023/06/27 14:47:44;;;;;;;6.40;2.60;;;13.70;62.10;;;;;;6306789;22;20000;-67
2023/06/27 14:50:11;;;;;;;6.10;2.25;;;13.70;62.40;;;;;;6305691;22;20104;-68
2023/06/27 14:52:38;;;;;;;11.02;3.00;;;13.70;62.50;;;;;;6306900;22;20342;-67
2023/06/27 14:55:06;;;;;;;9.05;2.78;;;13.60;62.40;;;;;;6307567;22;20003;-68
2023/06/27 14:57:33;;;;;;;6.57;2.90;;;13.70;62.40;;;;;;6305803;22;20465;-67
2023/06/27 15:00:00;;;;;;;8.93;2.53;;;13.60;62.50;;;;;;6305815;22;20021;-68
2023/06/27 15:02:28;;;;;;;9.07;2.90;;;13.60;62.60;;;;;;6306190;22;19996;-68
2023/06/27 15:04:55;;;;;;;13.07;2.70;;;13.70;62.70;;;;;;6306737;22;20445;-67
2023/06/27 15:07:22;;;;;;;12.32;2.60;;;13.70;62.80;;;;;;6307008;22;20027;-67
2023/06/27 15:09:50;;;;;;;5.47;2.55;;;13.60;62.80;;;;;;6306874;22;20081;-68
2023/06/27 15:12:17;;;;;;;6.10;2.30;;;13.70;62.70;;;;;;6307036;22;20003;-68
2023/06/27 15:14:49;;;;;;;11.82;3.08;;;13.60;62.70;;;;;;6305971;22;20062;-68
2023/06/27 15:17:16;;;;;;;7.10;2.42;;;13.60;62.80;;;;;;6307146;22;20006;-68
2023/06/27 15:19:48;;;;;;;14.35;3.15;;;13.60;62.70;;;;;;6306646;22;20015;-70
2023/06/27 15:22:15;;;;;;;5.82;2.63;;;13.60;62.60;;;;;;6306863;22;20004;-66
2023/06/27 17:15:21;;;;;;;9.35;2.30;;;13.30;66.50;;;;;;6303604;22;19918;-67
2023/06/27 17:17:49;;;;;;;7.97;2.78;;;13.40;66.20;;;;;;6307013;22;20015;-68
2023/06/27 17:20:16;;;;;;;6.18;2.55;;;13.40;66.20;;;;;;6307721;22;20072;-68
2023/06/27 17:22:44;;;;;;;6.15;2.80;;;13.40;66.20;;;;;;6307009;22;20027;-68
2023/06/27 17:25:11;;;;;;;8.77;2.47;;;13.40;66.20;;;;;;6307119;22;20007;-68
2023/06/27 17:27:39;;;;;;;12.13;2.90;;;13.40;66.10;;;;;;6307966;22;20481;-68
2023/06/27 17:30:07;;;;;;;12.15;3.13;;;13.30;66.10;;;;;;6307338;22;19995;-68
2023/06/27 17:32:34;;;;;;;11.85;3.00;;;13.40;65.90;;;;;;6307570;22;20389;-68
2023/06/27 17:35:02;;;;;;;7.03;2.65;;;13.40;66.10;;;;;;6306821;22;20361;-67
2023/06/27 17:37:29;;;;;;;6.88;2.78;;;13.40;66.20;;;;;;6306651;22;20007;-67
2023/06/27 17:39:56;;;;;;;10.90;3.08;;;13.40;66.10;;;;;;6307481;22;20011;-67
2023/06/27 17:42:24;;;;;;;7.25;2.63;;;13.40;66.20;;;;;;6307284;22;19995;-68
2023/06/27 17:44:51;;;;;;;7.95;2.63;;;13.40;66.30;;;;;;6306388;22;20007;-68
2023/06/27 17:47:19;;;;;;;8.00;2.85;;;13.30;66.70;;;;;;6306981;22;20039;-68
2023/06/27 17:49:46;;;;;;;11.02;2.97;;;13.30;66.70;;;;;;6306703;22;20073;-67
2023/06/27 17:52:14;;;;;;;5.97;2.17;;;13.30;67.00;;;;;;6306635;22;20003;-68
2023/06/27 17:54:42;;;;;;;10.15;2.58;;;13.30;67.30;;;;;;6307046;22;20061;-67
2023/06/27 17:57:09;;;;;;;8.95;3.00;;;13.30;67.40;;;;;;6279061;22;20086;-69
2023/06/27 17:59:37;;;;;;;6.95;3.20;;;13.30;67.60;;;;;;6306195;22;20014;-67
2023/06/27 18:02:05;;;;;;;9.95;2.78;;;13.20;67.70;;;;;;6306947;22;20006;-67
2023/06/27 18:04:32;;;;;;;11.80;2.90;;;13.20;67.90;;;;;;6306750;22;20356;-67
2023/06/27 18:06:59;;;;;;;7.82;2.55;;;13.20;68.10;;;;;;6307053;22;19999;-69
2023/06/27 18:09:27;;;;;;;6.13;2.72;;;13.20;68.20;;;;;;6306335;22;20429;-67
2023/06/27 18:11:54;;;;;;;8.90;2.70;;;13.20;68.10;;;;;;6306753;22;20076;-67
2023/06/27 18:14:22;;;;;;;10.45;2.60;;;13.20;68.20;;;;;;6306260;22;20450;-66
2023/06/27 18:16:49;;;;;;;8.95;3.05;;;13.20;68.10;;;;;;6305771;22;20050;-69
2023/06/27 18:19:16;;;;;;;6.70;2.42;;;13.20;68.30;;;;;;6306334;22;20008;-67
2023/06/27 18:21:44;;;;;;;8.55;2.97;;;13.20;68.30;;;;;;6306086;22;20418;-66
2023/06/27 18:24:11;;;;;;;9.13;2.75;;;13.20;68.40;;;;;;6278440;22;20091;-67
2023/06/27 18:26:39;;;;;;;9.40;2.63;;;13.20;68.60;;;;;;6305266;22;20007;-67
2023/06/27 18:29:06;;;;;;;6.30;2.63;;;13.20;68.60;;;;;;6307274;22;20057;-69
2023/06/27 18:31:34;;;;;;;12.00;2.50;;;13.20;68.70;;;;;;6305319;22;20013;-67
2023/06/27 18:34:04;;;;;;;6.88;3.00;;;13.20;68.60;;;;;;6305682;22;20036;-67
2023/06/27 18:36:32;;;;;;;7.88;2.75;;;13.20;68.80;;;;;;6306350;22;20017;-67
2023/06/27 18:39:04;;;;;;;7.68;2.78;;;13.20;68.70;;;;;;6306607;22;20022;-67
2023/06/27 18:41:32;;;;;;;9.73;2.80;;;13.10;68.80;;;;;;6306700;22;20014;-67
2023/06/27 18:43:59;;;;;;;11.05;3.20;;;13.20;68.80;;;;;;6307677;22;20002;-67
2023/06/27 20:26:48;;;;;;;;;;;12.80;72.40;;;;;;6302424;22;20025;-68
2023/06/27 20:29:16;;;;;;;13.63;2.70;;;12.80;73.50;;;;;;6305907;22;19965;-68
2023/06/27 20:31:43;;;;;;;8.15;2.53;;;12.70;74.30;;;;;;6306082;22;20053;-68
2023/06/27 20:34:10;;;;;;;11.95;2.97;;;12.60;75.40;;;;;;6306072;22;20465;-68
2023/06/27 20:36:38;;;;;;;12.55;2.80;;;12.50;76.10;;;;;;6293426;22;20003;-68
2023/06/27 20:39:06;;;;;;;14.75;3.35;;;12.50;76.90;;;;;;6304621;22;20038;-68
2023/06/27 20:41:35;;;;;;;14.88;3.20;;;12.50;77.50;;;;;;6305520;22;20007;-68
2023/06/27 20:44:02;;;;;;;9.38;2.63;;;12.40;78.70;;;;;;6305392;22;20003;-68
2023/06/27 20:46:30;;;;;;;8.95;2.53;;;12.40;79.00;;;;;;6305382;22;20121;-68
2023/06/27 20:48:57;;;;;;;11.95;2.85;;;12.30;79.30;;;;;;6305820;22;20437;-68
2023/06/27 20:51:24;;;;;;;11.60;2.70;;;12.20;79.70;;;;;;6305439;22;20023;-67
2023/06/27 20:53:52;;;;;;;12.20;2.60;;;12.20;80.60;;;;;;6305670;22;20007;-68
2023/06/27 20:56:19;;;;;;;9.82;2.78;;;12.20;80.80;;;;;;6306560;22;20326;-68
2023/06/27 20:58:47;;;;;;;10.52;3.30;;;12.10;81.30;;;;;;6308086;22;20007;-68
2023/06/27 21:01:14;;;;;;;9.13;2.88;;;12.00;82.00;;;;;;6307452;22;20038;-68
2023/06/27 21:03:42;;;;;;;10.77;3.10;;;11.90;82.50;;;;;;6306287;22;20070;-68
2023/06/27 21:06:15;;;;;;;12.57;3.10;;;11.90;82.70;;;;;;6307174;22;20014;-68
2023/06/27 21:08:44;;;;;;;16.67;4.00;;;11.80;84.00;;;;;;6306493;22;20070;-68
2023/06/27 21:11:14;;;;;;;6.57;3.10;;;11.80;84.50;;;;;;6307165;22;20011;-68
2023/06/27 21:13:44;;;;;;;17.73;3.00;;;11.80;84.90;;;;;;6306654;22;20013;-68
2023/06/27 21:16:12;;;;;;;10.10;3.03;;;11.80;85.50;;;;;;6306348;22;20090;-68
2023/06/27 21:18:40;;;;;;;10.27;3.20;;;11.70;85.50;;;;;;6306835;22;20053;-69
2023/06/27 21:21:08;;;;;;;10.73;3.10;;;11.70;85.60;;;;;;6307698;22;20354;-70
2023/06/27 21:23:35;;;;;;;15.40;3.10;;;11.70;85.70;;;;;;6308099;22;19995;-70
2023/06/27 21:26:03;;;;;;;9.15;2.65;;;11.70;86.40;;;;;;6307300;22;20007;-71
2023/06/27 22:22:33;;;;;;;6.50;2.25;;;11.60;88.60;;;;;;6306220;22;20026;-70
2023/06/27 22:25:01;;;;;;;5.32;1.98;;;11.60;88.50;;;;;;6307315;22;20061;-70
2023/06/27 22:27:28;;;;;;;9.75;2.53;;;11.60;88.70;;;;;;6307590;22;20312;-71
2023/06/27 22:29:56;;;;;;;8.43;2.67;;;11.60;88.40;;;;;;6307205;22;19999;-72
2023/06/27 22:32:23;;;;;;;10.60;2.47;;;11.70;88.70;;;;;;6307133;22;20070;-71
2023/06/27 22:34:51;;;;;;;9.77;2.53;;;11.60;88.80;;;;;;6307316;22;19999;-70
2023/06/27 22:37:19;;;;;;;15.38;2.90;;;11.70;89.20;;;;;;6306975;22;20038;-71
2023/06/27 22:39:46;;;;;;;10.77;2.47;;;11.70;89.20;;;;;;6306780;22;20003;-70
2023/06/27 22:42:14;;;;;;;11.90;2.63;;;11.70;89.40;;;;;;6306965;22;20061;-71
2023/06/27 22:44:41;;;;;;;10.68;2.40;;;11.70;89.40;;;;;;6305994;22;20005;-70
2023/06/27 22:47:09;;;;;;;9.40;2.67;;;11.70;89.50;;;;;;6305119;22;20389;-70
2023/06/27 22:49:36;;;;;;;8.82;3.42;;;11.70;89.50;;;;;;6304002;22;20000;-70
2023/06/27 22:52:04;;;;;;;11.38;2.65;;;11.70;89.60;;;;;;6305757;22;20014;-70
2023/06/27 22:54:31;;;;;;;8.48;2.90;;;11.70;89.60;;;;;;6306095;22;20049;-70
2023/06/27 22:56:58;;;;;;;14.35;2.90;;;11.70;89.50;;;;;;6277926;22;20061;-70
2023/06/27 22:59:27;;;;;;;9.68;3.42;;;11.70;89.50;;;;;;6305824;22;20472;-70
2023/06/27 23:01:54;;;;;;;16.15;3.20;;;11.70;89.50;;;;;;6305693;22;20003;-71
2023/06/27 23:04:21;;;;;;;13.95;2.90;;;11.70;89.50;;;;;;6305666;22;20011;-71
2023/06/27 23:06:49;;;;;;;11.45;2.90;;;11.70;89.20;;;;;;6305248;22;20006;-71
2023/06/27 23:09:16;;;;;;;8.82;2.60;;;11.70;89.40;;;;;;6305919;22;20448;-70
2023/06/27 23:11:44;;;;;;;8.75;2.45;;;11.70;89.40;;;;;;6305943;22;20011;-70
2023/06/27 23:14:11;;;;;;;9.27;2.70;;;11.70;89.50;;;;;;6306600;22;20086;-70
2023/06/27 23:16:38;;;;;;;10.05;3.03;;;11.70;89.60;;;;;;6306026;22;20313;-70
2023/06/27 23:19:06;;;;;;;13.25;2.70;;;11.70;89.30;;;;;;6305233;22;20012;-70
